ADDS METAR Data INFO
IDs: Format: Raw Decoded Include TAF

Data at: 0302 UTC 21 Oct 2017

KSBS 210253Z AUTO 27004KT 4SM SCT012 OVC022 06/04 A2978 RMK AO1 T00550042
KSBS 210230Z AUTO 28008G15KT 10SM SCT021 BKN027 OVC032 07/03 A2976 RMK AO1 T00670029
KSBS 210212Z AUTO 30014G23KT 10SM BKN034 BKN050 OVC085 08/02 A2974 RMK AO1 T00770023
KSBS 210154Z AUTO 30015G25KT 10SM BKN085 OVC100 09/01 A2973 RMK AO1 T00900010
KSBS 210130Z AUTO 29023G33KT 10SM BKN095 BKN110 11/00 A2969 RMK AO1 T01091005
KSBS 210112Z AUTO 17010KT 10SM SCT120 14/M04 A2965 RMK AO1 T01371041
KSBS 210054Z AUTO 18004KT 10SM CLR 13/M04 A2965 RMK AO1 T01311040
KSBS 210030Z AUTO 21006KT 10SM CLR 14/M04 A2965 RMK AO1 T01391040
KSBS 210012Z AUTO 21009G16KT 10SM CLR 15/M04 A2964 RMK AO1 T01511041
KSBS 202354Z AUTO 20013G20KT 10SM SCT100 16/M04 A2964 RMK AO1 T01631041
KSBS 202330Z AUTO 21008KT 10SM SCT100 17/M04 A2965 RMK AO1 T01691036
KSBS 202312Z AUTO 22010G19KT 180V240 10SM CLR 17/M04 A2964 RMK AO1 T01651039
KSBS 202254Z AUTO 23017G24KT 10SM CLR 17/M05 A2964 RMK AO1 T01731048
KSBS 202230Z AUTO 23014G24KT 10SM SCT100 BKN120 18/M05 A2965 RMK AO1 T01821046
KSBS 202212Z AUTO 22011G17KT 10SM SCT100 SCT120 17/M04 A2966 RMK AO1 T01711045
KSBS 202154Z AUTO 22012G18KT 10SM SCT090 19/M04 A2966 RMK AO1 T01861039
KSBS 202130Z AUTO 22013G19KT 10SM SCT090 SCT120 18/M03 A2966 RMK AO1 T01821033
KSBS 202112Z AUTO 21010G21KT 10SM BKN090 BKN110 18/M03 A2968 RMK AO1 T01801026
KSBS 202054Z AUTO 22014G24KT 10SM SCT075 BKN100 BKN110 17/M03 A2969 RMK AO1 T01711029
KSBS 202030Z AUTO 22013G19KT 10SM SCT070 SCT090 BKN110 18/M03 A2969 RMK AO1 T01781028
KSBS 202012Z AUTO 23017G27KT 10SM BKN100 18/M03 A2970 RMK AO1 T01761033
KSBS 201948Z AUTO 22014G24KT 10SM CLR 19/M03 A2970 RMK AO1 T01891026
KSBS 201930Z AUTO 23016G24KT 10SM CLR 18/M02 A2971 RMK AO1 T01841018
KSBS 201912Z AUTO 24017G26KT 10SM SCT090 18/M02 A2972 RMK AO1 T01811024
KSBS 201848Z AUTO 22017G26KT 10SM SCT080 BKN090 18/M01 A2972 RMK AO1 T01821015
KSBS 201830Z AUTO 22009G21KT 10SM SCT080 BKN090 17/M01 A2973 RMK AO1 T01721009
KSBS 201812Z AUTO 19009KT 10SM SCT085 17/00 A2973 RMK AO1 T01740000
KSBS 201748Z AUTO 22003KT 10SM SCT085 16/00 A2974 RMK AO1 T01640003
KSBS 201730Z AUTO 21006KT 10SM CLR 16/01 A2975 RMK AO1 T01640007
KSBS 201712Z AUTO 00000KT 10SM SCT075 15/01 A2976 RMK AO1 T01530011
KSBS 201653Z AUTO 00000KT 10SM SCT075 14/02 A2977 RMK AO1 T01430015
KSBS 201629Z AUTO 10003KT 10SM SCT065 14/01 A2980 RMK AO1 T01440012
KSBS 201612Z AUTO 09004KT 10SM SCT065 12/01 A2980 RMK AO1 T01160012
KSBS 201552Z AUTO 00000KT 10SM SCT065 SCT090 SCT110 07/00 A2984 RMK AO1 T00690003
KSBS 201529Z AUTO 00000KT 10SM SCT065 SCT075 OVC095 05/00 A2986 RMK AO1 T00540000
KSBS 201512Z AUTO 00000KT 10SM BKN065 OVC085 05/00 A2986 RMK AO1 T00461004
KSBS 201452Z AUTO 00000KT 10SM BKN065 OVC085 04/M01 A2986 RMK AO1 T00401006
KSBS 201430Z AUTO 00000KT 10SM SCT065 BKN095 OVC110 03/M01 A2986 RMK AO1 T00321007
KSBS 201412Z AUTO 00000KT 10SM SCT065 OVC100 03/M01 A2986 RMK AO1 T00311006
KSBS 201353Z AUTO 00000KT 10SM SCT100 OVC120 02/M01 A2986 RMK AO1 T00221011
KSBS 201330Z AUTO 00000KT 10SM BKN120 02/M01 A2988 RMK AO1 T00231014
KSBS 201312Z AUTO 00000KT 10SM SCT120 03/M01 A2987 RMK AO1 T00311015
KSBS 201248Z AUTO 00000KT 10SM BKN120 03/M01 A2988 RMK AO1 T00341013
KSBS 201230Z AUTO 00000KT 10SM SCT110 04/M01 A2989 RMK AO1 T00401015
KSBS 201212Z AUTO 00000KT 10SM SCT110 03/M01 A2989 RMK AO1 T00331014
KSBS 201154Z AUTO 00000KT 10SM SCT110 03/M01 A2990 RMK AO1 T00311015
KSBS 201130Z AUTO 00000KT 10SM CLR 03/M01 A2991 RMK AO1 T00261015
KSBS 201112Z AUTO 00000KT 10SM CLR 04/M01 A2990 RMK AO1 T00371013
KSBS 201054Z AUTO 00000KT 10SM CLR 04/M01 A2990 RMK AO1 T00441014
KSBS 201030Z AUTO 00000KT 10SM CLR 04/M01 A2991 RMK AO1 T00411014
KSBS 201012Z AUTO 00000KT 10SM CLR 03/M02 A2992 RMK AO1 T00251016
KSBS 200954Z AUTO 23003KT 10SM CLR 05/M01 A2993 RMK AO1 T00491012
KSBS 200930Z AUTO 00000KT 10SM CLR 05/M01 A2994 RMK AO1 T00541010
KSBS 200912Z AUTO 00000KT 10SM SCT090 06/M01 A2994 RMK AO1 T00591011
KSBS 200854Z AUTO 00000KT 10SM SCT090 06/M01 A2995 RMK AO1 T00631010
KSBS 200830Z AUTO 00000KT 10SM SCT090 SCT110 06/M01 A2996 RMK AO1 T00551010
KSBS 200812Z AUTO 00000KT 10SM SCT085 BKN110 08/M01 A2996 RMK AO1 T00811010
KSBS 200754Z AUTO 00000KT 10SM OVC100 08/M01 A2996 RMK AO1 T00751007
KSBS 200730Z AUTO 00000KT 10SM OVC110 06/M01 A2997 RMK AO1 T00621010
KSBS 200712Z AUTO 00000KT 10SM OVC100 08/M01 A2997 RMK AO1 T00811010
KSBS 200654Z AUTO 35003KT 10SM OVC100 08/M01 A2998 RMK AO1 T00821011
KSBS 200630Z AUTO 08008KT 10SM BKN100 10/M01 A2998 RMK AO1 T00951011
KSBS 200612Z AUTO 08010KT 10SM SCT100 10/M01 A2999 RMK AO1 T00951011
KSBS 200553Z AUTO 09005KT 10SM BKN100 09/M01 A3000 RMK AO1 T00881012
KSBS 200530Z AUTO 00000KT 10SM BKN120 09/M01 A3000 RMK AO1 T00871011
KSBS 200512Z AUTO 06006KT 10SM BKN120 10/M01 A3001 RMK AO1 T01001013
KSBS 200453Z AUTO 08009KT 10SM BKN120 10/M01 A3001 RMK AO1 T01021014
KSBS 200429Z AUTO 09006KT 10SM BKN120 09/M01 A3002 RMK AO1 T00911012
KSBS 200412Z AUTO 00000KT 10SM SCT120 10/M01 A3002 RMK AO1 T01031014
KSBS 200354Z AUTO 13003KT 10SM SCT120 10/M01 A3002 RMK AO1 T01011012
KSBS 200330Z AUTO 14005KT 10SM BKN110 10/M02 A3002 RMK AO1 T01001016
KSBS 200312Z AUTO 07004KT 10SM BKN110 12/M02 A3002 RMK AO1 T01171017
KSBS 200248Z AUTO 10004KT 10SM SCT100 OVC120 14/M02 A3002 RMK AO1 T01381019
KSBS 200230Z AUTO 12004KT 10SM BKN100 OVC120 12/M02 A3002 RMK AO1 T01201020
KSBS 200212Z AUTO 08003KT 10SM BKN110 13/M02 A3002 RMK AO1 T01301020
KSBS 200153Z AUTO 10004KT 10SM SCT110 14/M03 A3003 RMK AO1 T01361034
KSBS 200130Z AUTO 10003KT 10SM CLR 14/M03 A3003 RMK AO1 T01441029
KSBS 200112Z AUTO 00000KT 10SM CLR 14/M03 A3003 RMK AO1 T01421035
KSBS 200053Z AUTO 00000KT 10SM SCT120 14/M03 A3003 RMK AO1 T01411035
KSBS 200029Z AUTO 26006KT 10SM CLR 15/M04 A3002 RMK AO1 T01521041
KSBS 200011Z AUTO 25007KT 10SM CLR 16/M04 A3002 RMK AO1 T01611040
KSBS 192348Z AUTO 25009KT 10SM CLR 18/M04 A3002 RMK AO1 T01781037
KSBS 192330Z AUTO 27007KT 10SM CLR 20/M04 A3002 RMK AO1 T01951043
KSBS 192312Z AUTO 00000KT 10SM CLR 20/M05 A3002 RMK AO1 T01961050
KSBS 192248Z AUTO 00000KT 10SM CLR 20/M05 A3002 RMK AO1 T01981051
KSBS 192230Z AUTO 00000KT 10SM CLR 20/M05 A3002 RMK AO1 T02031052
KSBS 192212Z AUTO 00000KT 10SM CLR 20/M05 A3003 RMK AO1 T02001054
KSBS 192153Z AUTO 26006KT 10SM CLR 20/M05 A3004 RMK AO1 T02011051
KSBS 192130Z AUTO 26006KT 10SM CLR 20/M05 A3004 RMK AO1 T02001051
KSBS 192112Z AUTO 25007KT 10SM CLR 20/M06 A3004 RMK AO1 T01991058
KSBS 192048Z AUTO 00000KT 10SM CLR 20/M06 A3004 RMK AO1 T02021057
KSBS 192030Z AUTO 27005KT 10SM CLR 20/M06 A3005 RMK AO1 T02031064
KSBS 192012Z AUTO 26004KT 10SM CLR 20/M06 A3006 RMK AO1 T02021063
KSBS 191953Z AUTO 26003KT 10SM SCT120 20/M08 A3008 RMK AO1 T01951076
KSBS 191929Z AUTO 20005KT 10SM SCT120 20/M09 A3009 RMK AO1 T01971086
KSBS 191912Z AUTO 00000KT 10SM SCT120 18/M10 A3010 RMK AO1 T01831099
KSBS 191854Z AUTO 00000KT 10SM CLR 18/M11 A3011 RMK AO1 T01801110
KSBS 191830Z AUTO 00000KT 10SM CLR 17/M07 A3012 RMK AO1 T01651075
KSBS 191812Z AUTO 00000KT 10SM CLR 15/M07 A3013 RMK AO1 T01541067
KSBS 191754Z AUTO 00000KT 10SM CLR 14/M07 A3015 RMK AO1 T01401075
KSBS 191730Z AUTO 00000KT 10SM CLR 12/M08 A3016 RMK AO1 T01231084
KSBS 191712Z AUTO 00000KT 10SM CLR 11/M08 A3016 RMK AO1 T01101078
KSBS 191653Z AUTO 00000KT 10SM CLR 10/M07 A3016 RMK AO1 T01001074
KSBS 191629Z AUTO 00000KT 10SM CLR 09/M08 A3016 RMK AO1 T00881076
KSBS 191612Z AUTO 00000KT 10SM CLR 07/M07 A3018 RMK AO1 T00721071
KSBS 191554Z AUTO 00000KT 10SM CLR 06/M07 A3018 RMK AO1 T00551073
KSBS 191530Z AUTO 00000KT 10SM CLR 04/M08 A3019 RMK AO1 T00381082
KSBS 191512Z AUTO 00000KT 10SM CLR 02/M07 A3019 RMK AO1 T00181073